Time;durP1;ratioP1;P1;durP2;ratioP2;P2;SDS_P1;SDS_P2;PMS_P1;PMS_P2;Temp;Humidity;BMP_temperature;BMP_pressure;BME280_temperature;BME280_humidity;BME280_pressure;Samples;Min_cycle;Max_cycle;Signal;HPM_P1;HPM_P2
2021/10/10 00:00:17;;;;;;;42.28;20.25;;;10.00;50.40;;;;;;5036737;28;20029;-34
2021/10/10 00:02:43;;;;;;;40.35;19.02;;;10.00;50.20;;;;;;5036920;28;20032;-37
2021/10/10 00:05:08;;;;;;;31.75;13.13;;;10.00;50.20;;;;;;5036081;28;20025;-35
2021/10/10 00:07:34;;;;;;;71.72;33.55;;;10.00;50.30;;;;;;5036618;28;20045;-35
2021/10/10 00:10:00;;;;;;;54.47;26.52;;;10.00;50.50;;;;;;5036783;28;20033;-37
2021/10/10 00:12:26;;;;;;;42.33;19.10;;;10.00;50.70;;;;;;5036617;28;20039;-34
2021/10/10 00:14:52;;;;;;;26.55;13.77;;;10.00;50.90;;;;;;5036715;28;20039;-35
2021/10/10 00:17:17;;;;;;;36.10;17.20;;;10.00;51.00;;;;;;5036595;28;20422;-38
2021/10/10 00:19:43;;;;;;;45.58;19.70;;;10.00;50.50;;;;;;5036414;28;20021;-39
2021/10/10 00:22:08;;;;;;;39.65;19.20;;;10.10;50.50;;;;;;5036148;28;20029;-37
2021/10/10 00:24:34;;;;;;;35.53;16.90;;;10.00;50.30;;;;;;5036492;28;20472;-34
2021/10/10 00:27:00;;;;;;;27.80;13.30;;;10.10;50.30;;;;;;5036260;28;20029;-34
2021/10/10 00:29:25;;;;;;;30.60;14.55;;;10.00;50.20;;;;;;5036362;28;20036;-37
2021/10/10 00:31:51;;;;;;;22.08;11.23;;;10.10;50.20;;;;;;5035989;28;20105;-33
2021/10/10 00:34:17;;;;;;;13.70;8.05;;;10.10;49.80;;;;;;5036137;28;20091;-37
2021/10/10 00:36:42;;;;;;;18.67;9.43;;;10.10;49.10;;;;;;5035873;28;20025;-34
2021/10/10 00:39:08;;;;;;;14.95;8.38;;;10.10;48.80;;;;;;5036087;28;20029;-34
2021/10/10 00:41:36;;;;;;;21.58;9.05;;;10.10;48.50;;;;;;5036036;28;20074;-34
2021/10/10 00:44:11;;;;;;;16.77;6.80;;;10.10;47.90;;;;;;5035974;28;20029;-34
2021/10/10 00:46:38;;;;;;;16.52;7.22;;;10.10;47.70;;;;;;5036163;28;20422;-34
2021/10/10 00:49:05;;;;;;;17.38;7.82;;;10.20;47.70;;;;;;5036124;28;20041;-37
2021/10/10 00:51:34;;;;;;;13.05;7.28;;;10.20;47.40;;;;;;5036151;28;20429;-37
2021/10/10 00:54:04;;;;;;;13.15;6.88;;;10.20;47.30;;;;;;5036234;28;20028;-37
2021/10/10 00:56:31;;;;;;;13.15;6.45;;;10.20;47.10;;;;;;5035786;28;20061;-34
2021/10/10 00:58:58;;;;;;;15.27;7.28;;;10.20;47.10;;;;;;5035729;28;20040;-34
2021/10/10 01:01:26;;;;;;;15.27;7.47;;;10.20;47.30;;;;;;5035730;28;20057;-34
2021/10/10 01:03:51;;;;;;;18.70;9.38;;;10.20;47.50;;;;;;5036024;28;20030;-34
2021/10/10 01:06:17;;;;;;;18.38;8.75;;;10.20;47.60;;;;;;5035403;28;20052;-39
2021/10/10 01:08:43;;;;;;;15.30;7.50;;;10.20;47.30;;;;;;5036304;28;20032;-34
2021/10/10 01:11:10;;;;;;;17.15;6.93;;;10.20;46.90;;;;;;5035521;28;20037;-37
2021/10/10 01:13:37;;;;;;;16.77;7.70;;;10.30;46.60;;;;;;5034822;28;20437;-37
2021/10/10 01:16:03;;;;;;;14.75;6.57;;;10.30;46.40;;;;;;5035373;28;20076;-34
2021/10/10 01:18:29;;;;;;;18.45;7.63;;;10.20;46.30;;;;;;5035433;28;20355;-37
2021/10/10 01:20:55;;;;;;;14.60;6.57;;;10.30;46.10;;;;;;5035415;28;20048;-38
2021/10/10 01:23:21;;;;;;;9.23;5.95;;;10.20;46.00;;;;;;5035948;28;20040;-35
2021/10/10 01:25:47;;;;;;;10.48;5.60;;;10.20;45.90;;;;;;5035312;28;20037;-37
2021/10/10 01:28:13;;;;;;;15.93;6.43;;;10.30;46.00;;;;;;5034263;28;20314;-34
2021/10/10 01:30:39;;;;;;;13.30;6.80;;;10.20;45.90;;;;;;5035790;28;20477;-34
2021/10/10 01:33:10;;;;;;;14.45;6.00;;;10.20;45.90;;;;;;5035435;28;20160;-37
2021/10/10 01:35:37;;;;;;;14.80;6.75;;;10.20;46.20;;;;;;5035377;28;20053;-34
2021/10/10 01:38:04;;;;;;;12.70;5.53;;;10.20;46.40;;;;;;5035420;28;20104;-34
2021/10/10 01:40:29;;;;;;;8.98;4.97;;;10.20;46.40;;;;;;5035602;28;20370;-37
2021/10/10 01:42:55;;;;;;;11.90;6.07;;;10.20;46.70;;;;;;5035354;28;20163;-38
2021/10/10 01:45:23;;;;;;;9.73;5.53;;;10.20;47.00;;;;;;5035123;28;20095;-34
2021/10/10 01:47:49;;;;;;;8.18;4.65;;;10.10;47.10;;;;;;5035297;28;20414;-37
2021/10/10 01:50:15;;;;;;;12.27;5.70;;;10.10;47.10;;;;;;5035570;28;20033;-38
2021/10/10 01:52:42;;;;;;;9.85;5.20;;;10.10;47.10;;;;;;5035287;28;20049;-37
2021/10/10 01:55:09;;;;;;;10.77;5.25;;;10.00;47.20;;;;;;5035130;28;20091;-37
2021/10/10 01:57:34;;;;;;;9.00;4.88;;;10.00;47.40;;;;;;5034959;28;20055;-34
2021/10/10 02:00:00;;;;;;;10.88;4.82;;;10.00;47.40;;;;;;5035337;28;20116;-36
2021/10/10 02:02:25;;;;;;;12.93;5.53;;;10.00;47.30;;;;;;5035108;28;20051;-34
2021/10/10 02:04:51;;;;;;;12.50;5.32;;;10.00;47.30;;;;;;5034920;28;20033;-36
2021/10/10 02:07:17;;;;;;;11.77;5.35;;;10.00;47.40;;;;;;5034896;28;20201;-34
2021/10/10 02:09:43;;;;;;;11.10;5.45;;;10.00;47.30;;;;;;5034964;28;20061;-37
2021/10/10 02:12:09;;;;;;;8.60;5.38;;;9.90;47.20;;;;;;5035106;28;20317;-37
2021/10/10 02:14:36;;;;;;;10.07;5.57;;;9.90;47.20;;;;;;5035010;28;20026;-38
2021/10/10 02:17:05;;;;;;;9.27;5.35;;;9.90;47.30;;;;;;5034781;28;20233;-35
2021/10/10 02:19:31;;;;;;;9.10;5.68;;;9.90;47.50;;;;;;5035131;28;20391;-38
2021/10/10 02:21:57;;;;;;;10.13;5.40;;;9.90;47.30;;;;;;5034916;28;21804;-38
2021/10/10 02:24:24;;;;;;;12.45;6.32;;;9.90;47.50;;;;;;5035042;28;20033;-34
2021/10/10 02:26:49;;;;;;;15.10;5.60;;;9.90;47.30;;;;;;5034541;28;20030;-39
2021/10/10 02:29:15;;;;;;;7.18;4.75;;;9.80;47.30;;;;;;5037305;28;20022;-38
2021/10/10 02:31:44;;;;;;;11.18;5.40;;;9.80;47.40;;;;;;5038551;28;20021;-38
2021/10/10 02:34:14;;;;;;;10.52;5.50;;;9.80;47.60;;;;;;5038266;28;20025;-34
2021/10/10 02:36:41;;;;;;;11.25;5.13;;;9.80;47.70;;;;;;5038570;28;20322;-36
2021/10/10 02:39:09;;;;;;;12.82;5.50;;;9.70;47.90;;;;;;5038151;28;20105;-38
2021/10/10 02:41:35;;;;;;;12.93;5.75;;;9.70;47.90;;;;;;5038224;28;20030;-34
2021/10/10 02:44:01;;;;;;;15.93;6.07;;;9.70;47.70;;;;;;5038608;28;20097;-37
2021/10/10 02:46:27;;;;;;;10.85;5.90;;;9.60;47.70;;;;;;5037914;28;20040;-37
2021/10/10 02:48:53;;;;;;;8.35;5.28;;;9.60;47.90;;;;;;5037338;28;20030;-35
2021/10/10 02:51:18;;;;;;;13.38;5.68;;;9.60;48.00;;;;;;5037795;28;20096;-35
2021/10/10 02:53:44;;;;;;;16.58;5.40;;;9.50;47.60;;;;;;5038576;28;20031;-38
2021/10/10 02:56:09;;;;;;;11.43;5.57;;;9.50;47.80;;;;;;5037573;28;20341;-40
2021/10/10 02:58:35;;;;;;;10.25;5.30;;;9.50;48.10;;;;;;5038534;28;20080;-36
2021/10/10 03:01:01;;;;;;;13.35;6.97;;;9.50;48.30;;;;;;5037766;28;20032;-35
2021/10/10 03:03:27;;;;;;;11.18;5.63;;;9.40;48.50;;;;;;5037997;28;20029;-38
2021/10/10 03:05:52;;;;;;;12.48;5.55;;;9.40;48.50;;;;;;5037589;28;20117;-38
2021/10/10 03:08:18;;;;;;;11.77;6.13;;;9.40;48.70;;;;;;5037986;28;20366;-38
2021/10/10 03:10:44;;;;;;;13.57;6.88;;;9.30;48.90;;;;;;5038131;28;20418;-37
2021/10/10 03:13:10;;;;;;;11.70;6.05;;;9.30;49.10;;;;;;5037978;28;20025;-37
2021/10/10 03:15:39;;;;;;;12.10;5.65;;;9.30;49.20;;;;;;5037655;28;20028;-34
2021/10/10 03:18:05;;;;;;;8.30;5.50;;;9.20;49.30;;;;;;5037622;28;20113;-34
2021/10/10 03:20:31;;;;;;;10.60;5.72;;;9.20;49.50;;;;;;5037508;28;20112;-37
2021/10/10 03:22:57;;;;;;;11.30;6.30;;;9.20;49.60;;;;;;5037442;28;20180;-38
2021/10/10 03:25:23;;;;;;;14.88;7.53;;;9.10;49.80;;;;;;5037282;28;20029;-34
2021/10/10 03:27:48;;;;;;;15.05;7.65;;;9.10;50.30;;;;;;5037462;28;20100;-34
2021/10/10 03:30:14;;;;;;;12.98;7.85;;;9.10;50.60;;;;;;5037116;28;20026;-34
2021/10/10 03:32:40;;;;;;;18.20;9.63;;;9.00;50.70;;;;;;5037624;28;20033;-38
2021/10/10 03:35:06;;;;;;;17.38;10.02;;;9.00;50.90;;;;;;5037531;28;20022;-33
2021/10/10 03:37:35;;;;;;;21.17;8.57;;;8.90;50.80;;;;;;5037018;28;20032;-35
2021/10/10 03:40:11;;;;;;;12.80;7.28;;;8.90;50.80;;;;;;5036655;28;20315;-35
2021/10/10 03:42:37;;;;;;;13.52;6.80;;;8.90;50.20;;;;;;5037091;28;20456;-34
2021/10/10 03:45:05;;;;;;;11.82;7.20;;;8.80;50.20;;;;;;5037156;28;20083;-34
2021/10/10 03:47:30;;;;;;;10.07;6.43;;;8.80;50.30;;;;;;5037391;28;20402;-37
2021/10/10 03:49:56;;;;;;;11.68;6.93;;;8.70;50.30;;;;;;5036840;28;20037;-35
2021/10/10 03:52:22;;;;;;;15.43;6.70;;;8.70;50.40;;;;;;5036988;28;20025;-37
2021/10/10 03:57:32;;;;;;;17.20;10.05;;;8.60;50.40;;;;;;5036919;28;20334;-35
2021/10/10 04:00:04;;;;;;;15.90;9.07;;;8.60;50.60;;;;;;5036916;28;20038;-38
2021/10/10 04:02:30;;;;;;;15.35;8.60;;;8.60;50.80;;;;;;5036856;28;20420;-34
2021/10/10 04:04:56;;;;;;;11.80;7.55;;;8.60;50.80;;;;;;5036783;28;20037;-38
2021/10/10 04:07:23;;;;;;;13.15;7.57;;;8.50;51.10;;;;;;5036886;28;20064;-38
2021/10/10 04:09:48;;;;;;;11.23;6.78;;;8.50;51.40;;;;;;5036763;28;20045;-38
2021/10/10 04:12:14;;;;;;;12.20;5.80;;;8.50;51.50;;;;;;5036671;28;20347;-38
2021/10/10 04:14:40;;;;;;;12.75;5.93;;;8.50;51.60;;;;;;5036430;28;20037;-37
2021/10/10 04:17:06;;;;;;;11.30;5.95;;;8.50;51.70;;;;;;5036418;28;20433;-34
2021/10/10 04:19:32;;;;;;;11.35;5.70;;;8.50;51.70;;;;;;5036492;28;20370;-37
2021/10/10 04:21:58;;;;;;;13.07;6.07;;;8.50;51.70;;;;;;5036113;28;20030;-38
2021/10/10 04:24:24;;;;;;;13.65;6.95;;;8.40;51.80;;;;;;5036415;28;20116;-38
2021/10/10 04:26:50;;;;;;;12.10;6.82;;;8.40;51.70;;;;;;5036005;28;20495;-34
2021/10/10 04:29:16;;;;;;;14.05;6.97;;;8.50;51.60;;;;;;5036120;28;20037;-38
2021/10/10 04:31:42;;;;;;;13.32;6.78;;;8.50;51.90;;;;;;5035997;28;20155;-37
2021/10/10 04:34:07;;;;;;;14.98;8.25;;;8.50;51.90;;;;;;5036254;28;20041;-34
2021/10/10 04:36:33;;;;;;;13.32;7.13;;;8.50;52.20;;;;;;5036116;28;20365;-35
2021/10/10 04:38:59;;;;;;;14.82;7.57;;;8.50;52.30;;;;;;5035643;28;20056;-34
2021/10/10 04:41:24;;;;;;;18.13;7.18;;;8.60;52.20;;;;;;5035945;28;20091;-39
2021/10/10 04:43:50;;;;;;;15.98;6.38;;;8.60;52.40;;;;;;5036525;28;20041;-34
2021/10/10 04:46:16;;;;;;;11.27;5.72;;;8.60;52.30;;;;;;5035692;28;20067;-38
2021/10/10 04:48:41;;;;;;;11.25;5.85;;;8.60;52.30;;;;;;5036502;28;20398;-38
2021/10/10 04:51:07;;;;;;;10.07;5.70;;;8.60;52.30;;;;;;5035496;28;20117;-35
2021/10/10 04:53:33;;;;;;;11.38;5.13;;;8.60;52.40;;;;;;5035879;28;20283;-34
2021/10/10 04:55:58;;;;;;;9.38;5.72;;;8.60;52.50;;;;;;5035427;28;20057;-38
2021/10/10 04:58:24;;;;;;;15.43;5.97;;;8.70;52.40;;;;;;5036289;28;20037;-38
2021/10/10 05:00:49;;;;;;;13.57;5.80;;;8.70;52.30;;;;;;5035930;28;20038;-38
2021/10/10 05:03:15;;;;;;;13.40;6.30;;;8.70;52.40;;;;;;5036045;28;20042;-34
2021/10/10 05:05:41;;;;;;;12.30;6.85;;;8.70;52.40;;;;;;5035302;28;20033;-34
2021/10/10 05:08:11;;;;;;;15.95;8.70;;;8.70;52.40;;;;;;5035205;28;20111;-34
2021/10/10 05:10:37;;;;;;;15.90;8.52;;;8.80;53.00;;;;;;5035608;28;20037;-34
2021/10/10 05:13:04;;;;;;;21.05;9.30;;;8.80;52.80;;;;;;5035815;28;20079;-34
2021/10/10 05:15:29;;;;;;;15.77;7.63;;;8.80;52.80;;;;;;5035346;28;20467;-38
2021/10/10 05:17:55;;;;;;;17.30;7.38;;;8.90;52.70;;;;;;5035646;28;20033;-34
2021/10/10 05:20:21;;;;;;;12.20;6.72;;;8.90;52.60;;;;;;5035519;28;20030;-34
2021/10/10 05:22:47;;;;;;;16.70;6.68;;;9.00;52.20;;;;;;5035522;28;20099;-38
2021/10/10 05:25:12;;;;;;;15.07;6.97;;;9.00;51.90;;;;;;5035541;28;20029;-34
2021/10/10 05:27:38;;;;;;;18.23;6.43;;;9.10;51.80;;;;;;5035410;28;20052;-38
2021/10/10 05:30:05;;;;;;;12.73;6.25;;;9.10;51.60;;;;;;5035152;28;20025;-39
2021/10/10 05:32:31;;;;;;;14.80;6.85;;;9.10;51.40;;;;;;5035400;28;20060;-34
2021/10/10 05:34:56;;;;;;;14.52;6.45;;;9.20;51.30;;;;;;5035477;28;20371;-34
2021/10/10 05:37:22;;;;;;;14.40;6.75;;;9.30;51.10;;;;;;5035143;28;20083;-34
2021/10/10 05:39:48;;;;;;;17.42;6.40;;;9.30;50.90;;;;;;5035034;28;20076;-34
2021/10/10 05:42:14;;;;;;;16.30;8.40;;;9.40;50.70;;;;;;5035269;28;20041;-34
2021/10/10 05:44:40;;;;;;;19.40;7.90;;;9.40;50.50;;;;;;5035334;28;20037;-34
2021/10/10 05:47:06;;;;;;;15.95;7.47;;;9.50;50.70;;;;;;5035009;28;20329;-35
2021/10/10 05:49:32;;;;;;;20.10;7.70;;;9.50;50.50;;;;;;5035181;28;20040;-39
2021/10/10 05:51:58;;;;;;;20.88;7.88;;;9.50;50.40;;;;;;5033798;28;20034;-35
2021/10/10 05:54:26;;;;;;;35.08;11.77;;;9.60;50.30;;;;;;5035290;28;20046;-39
2021/10/10 05:56:51;;;;;;;33.00;10.60;;;9.70;50.30;;;;;;5034700;28;20060;-35
2021/10/10 05:59:19;;;;;;;15.50;7.45;;;9.70;50.40;;;;;;5035252;28;20116;-39
2021/10/10 06:01:45;;;;;;;18.85;6.88;;;9.80;50.70;;;;;;5034722;28;20034;-37
2021/10/10 06:04:11;;;;;;;21.27;8.63;;;9.90;50.30;;;;;;5037300;28;20095;-37
2021/10/10 06:06:37;;;;;;;32.40;10.80;;;9.90;50.10;;;;;;5038500;28;20036;-34
2021/10/10 06:09:05;;;;;;;28.00;11.68;;;10.00;49.70;;;;;;5038853;28;20034;-35
2021/10/10 06:11:31;;;;;;;22.33;10.70;;;10.10;49.60;;;;;;5038657;28;20318;-38
2021/10/10 06:13:59;;;;;;;16.92;8.70;;;10.10;49.30;;;;;;5038388;28;20112;-34
2021/10/10 06:16:25;;;;;;;26.35;10.60;;;10.20;49.20;;;;;;5039034;28;20064;-35
2021/10/10 06:18:51;;;;;;;16.00;8.50;;;10.30;49.00;;;;;;5038701;28;20036;-38
2021/10/10 06:21:17;;;;;;;17.15;8.77;;;10.40;48.90;;;;;;5037902;28;20041;-39
2021/10/10 06:23:43;;;;;;;11.10;7.00;;;10.50;48.70;;;;;;5038939;28;20119;-34
2021/10/10 06:26:08;;;;;;;11.70;7.13;;;10.60;48.60;;;;;;5037765;28;20135;-38
2021/10/10 06:28:34;;;;;;;13.85;5.80;;;10.70;48.60;;;;;;5038901;28;20045;-34
2021/10/10 06:30:59;;;;;;;12.98;7.13;;;10.70;48.40;;;;;;5038318;28;20382;-39
2021/10/10 06:33:25;;;;;;;13.00;6.50;;;10.80;48.40;;;;;;5038600;28;20412;-34
2021/10/10 06:35:52;;;;;;;14.55;8.32;;;10.80;48.30;;;;;;5038412;28;20065;-38
2021/10/10 06:38:18;;;;;;;11.25;6.30;;;10.90;48.20;;;;;;5038311;28;20033;-34
2021/10/10 06:40:46;;;;;;;14.30;7.65;;;11.00;48.20;;;;;;5038356;28;20037;-38
2021/10/10 06:43:12;;;;;;;14.73;7.85;;;11.00;47.90;;;;;;5038198;28;20076;-37
2021/10/10 06:45:37;;;;;;;15.75;7.20;;;11.10;48.00;;;;;;5037775;28;20343;-38
2021/10/10 06:48:03;;;;;;;12.50;6.85;;;11.20;48.20;;;;;;5038081;28;20030;-38
2021/10/10 06:50:29;;;;;;;14.65;6.68;;;11.30;48.30;;;;;;5038290;28;20022;-34
2021/10/10 06:52:55;;;;;;;11.65;6.78;;;11.30;47.90;;;;;;5038047;28;20022;-37
2021/10/10 06:55:21;;;;;;;11.57;6.38;;;11.40;47.80;;;;;;5037635;28;20072;-38
2021/10/10 06:57:46;;;;;;;16.27;7.15;;;11.40;47.90;;;;;;5037658;28;20129;-39
2021/10/10 07:00:13;;;;;;;10.80;6.30;;;11.50;48.10;;;;;;5037848;28;20025;-35
2021/10/10 07:02:42;;;;;;;13.70;7.93;;;11.50;48.10;;;;;;5037633;28;20108;-38
2021/10/10 07:05:11;;;;;;;14.82;6.45;;;11.60;48.20;;;;;;5037410;28;20029;-36
2021/10/10 07:07:37;;;;;;;16.90;7.72;;;11.60;48.30;;;;;;5037551;28;20124;-37
2021/10/10 07:10:05;;;;;;;15.07;6.00;;;11.60;48.20;;;;;;5037393;28;20208;-38
2021/10/10 07:12:30;;;;;;;9.60;5.18;;;11.70;47.90;;;;;;5037649;28;20052;-34
2021/10/10 07:14:56;;;;;;;15.48;9.20;;;11.70;47.70;;;;;;5036512;28;20410;-38
2021/10/10 07:17:26;;;;;;;12.70;7.38;;;11.70;47.20;;;;;;5037448;28;20349;-39
2021/10/10 07:19:57;;;;;;;14.43;6.35;;;11.80;47.20;;;;;;5036203;28;20038;-38
2021/10/10 07:22:43;;;;;;;11.63;6.25;;;11.70;47.20;;;;;;5037143;28;20060;-37
2021/10/10 07:25:10;;;;;;;11.80;6.32;;;11.70;47.20;;;;;;5037271;28;20041;-35
2021/10/10 07:27:41;;;;;;;19.60;6.72;;;11.70;47.20;;;;;;5037429;28;20026;-34
2021/10/10 07:30:09;;;;;;;10.93;6.13;;;11.70;47.20;;;;;;5037293;28;20133;-35
2021/10/10 07:32:36;;;;;;;12.55;6.35;;;11.70;47.10;;;;;;5037026;28;20029;-35
2021/10/10 07:35:03;;;;;;;12.05;7.03;;;11.80;47.10;;;;;;5037089;28;20029;-36
2021/10/10 07:37:29;;;;;;;11.82;6.40;;;11.70;46.90;;;;;;5036762;28;20052;-39
2021/10/10 07:39:55;;;;;;;14.75;6.53;;;11.80;46.80;;;;;;5036862;28;20038;-35
2021/10/10 07:42:21;;;;;;;11.50;6.75;;;11.80;46.60;;;;;;5036872;28;20029;-38
2021/10/10 07:44:50;;;;;;;14.40;6.50;;;11.80;46.60;;;;;;5036726;28;20108;-35
2021/10/10 07:49:48;;;;;;;18.33;7.40;;;11.90;46.40;;;;;;5036863;28;20464;-35
2021/10/10 07:52:15;;;;;;;20.67;12.05;;;12.00;46.50;;;;;;5036883;28;20144;-39
2021/10/10 07:54:41;;;;;;;17.95;9.15;;;12.00;46.40;;;;;;5036602;28;20037;-35
2021/10/10 07:57:06;;;;;;;15.60;6.80;;;12.10;46.50;;;;;;5036304;28;20057;-34
2021/10/10 07:59:32;;;;;;;16.75;6.90;;;12.20;46.60;;;;;;5036756;28;20061;-34
2021/10/10 08:01:58;;;;;;;13.80;6.60;;;12.20;46.60;;;;;;5036473;28;20405;-37
2021/10/10 08:04:25;;;;;;;17.13;6.80;;;12.30;46.50;;;;;;5036627;28;20026;-34
2021/10/10 08:06:51;;;;;;;15.52;8.35;;;12.40;46.20;;;;;;5036381;28;20025;-35
2021/10/10 08:09:17;;;;;;;14.35;5.60;;;12.40;46.10;;;;;;5036363;28;20037;-35
2021/10/10 08:11:43;;;;;;;17.88;7.20;;;12.50;46.20;;;;;;5036128;28;20017;-34
2021/10/10 08:14:10;;;;;;;17.55;6.30;;;12.60;46.30;;;;;;5036481;28;20053;-36
2021/10/10 08:16:37;;;;;;;12.45;6.70;;;12.70;46.30;;;;;;5036174;28;20061;-34
2021/10/10 08:19:03;;;;;;;17.67;7.03;;;12.80;46.30;;;;;;5036127;28;20068;-35
2021/10/10 08:21:31;;;;;;;18.55;8.00;;;12.90;46.10;;;;;;5035961;28;20057;-35
2021/10/10 08:23:57;;;;;;;14.63;7.15;;;13.00;45.30;;;;;;5036498;28;20061;-35
2021/10/10 08:26:22;;;;;;;18.70;12.13;;;13.00;44.90;;;;;;5035092;28;20029;-35
2021/10/10 08:28:48;;;;;;;21.50;10.63;;;13.10;45.30;;;;;;5036412;28;20095;-34
2021/10/10 08:31:14;;;;;;;27.48;14.82;;;13.20;44.60;;;;;;5035659;28;20246;-34
2021/10/10 08:33:39;;;;;;;18.50;10.85;;;13.30;44.70;;;;;;5036131;28;20026;-35
2021/10/10 08:36:08;;;;;;;18.25;10.23;;;13.30;44.20;;;;;;5035462;28;20033;-34
2021/10/10 08:38:37;;;;;;;15.93;7.18;;;13.40;43.70;;;;;;5036425;28;20045;-34
2021/10/10 08:41:05;;;;;;;12.25;6.63;;;13.50;43.50;;;;;;5035475;28;20041;-38
2021/10/10 08:43:32;;;;;;;12.85;7.60;;;13.50;43.30;;;;;;5035991;28;20092;-39
2021/10/10 08:46:01;;;;;;;11.48;5.53;;;13.60;43.20;;;;;;5034938;28;20046;-39
2021/10/10 08:48:27;;;;;;;12.93;6.68;;;13.60;43.10;;;;;;5035765;28;20033;-39
2021/10/10 08:50:54;;;;;;;17.35;6.60;;;13.70;43.30;;;;;;5035407;28;20310;-35
2021/10/10 08:53:21;;;;;;;12.32;7.20;;;13.70;42.70;;;;;;5035504;28;20026;-35
2021/10/10 08:55:48;;;;;;;17.70;8.15;;;13.80;42.80;;;;;;5035131;28;20282;-35
2021/10/10 08:58:17;;;;;;;13.65;5.82;;;13.80;42.90;;;;;;5035513;28;20032;-35
2021/10/10 09:01:02;;;;;;;13.23;5.93;;;13.80;43.40;;;;;;5035648;28;20029;-35
2021/10/10 09:03:27;;;;;;;11.65;5.60;;;13.90;42.50;;;;;;5035850;28;20322;-37
2021/10/10 09:05:54;;;;;;;13.40;6.50;;;14.00;42.40;;;;;;5034582;28;20057;-39
2021/10/10 09:08:21;;;;;;;11.45;6.38;;;14.00;42.80;;;;;;5035510;28;20418;-39
2021/10/10 09:10:59;;;;;;;16.10;6.43;;;14.00;42.80;;;;;;5035393;28;20044;-34
2021/10/10 09:13:36;;;;;;;14.38;7.47;;;14.00;42.90;;;;;;5035724;28;20437;-35
2021/10/10 09:16:03;;;;;;;13.40;7.07;;;14.10;43.00;;;;;;5035048;28;20033;-35
2021/10/10 09:18:35;;;;;;;20.33;10.68;;;14.10;42.80;;;;;;5035726;28;20104;-35
2021/10/10 09:21:26;;;;;;;22.85;11.45;;;14.20;42.80;;;;;;5034911;28;20067;-34
2021/10/10 09:23:54;;;;;;;23.58;12.63;;;14.20;42.60;;;;;;5034728;28;20041;-34
2021/10/10 09:26:21;;;;;;;19.17;10.90;;;14.20;42.80;;;;;;5034918;28;20041;-39
2021/10/10 09:28:48;;;;;;;14.73;8.90;;;14.20;42.50;;;;;;5035622;28;20299;-35
2021/10/10 09:31:14;;;;;;;22.25;10.40;;;14.30;42.40;;;;;;5034792;28;20029;-35
2021/10/10 09:33:41;;;;;;;13.95;6.85;;;14.30;42.30;;;;;;5035852;28;20353;-39
2021/10/10 09:36:15;;;;;;;15.02;7.93;;;14.40;42.30;;;;;;5034743;28;20083;-35
2021/10/10 09:38:45;;;;;;;20.08;7.95;;;14.40;42.20;;;;;;5037413;28;20032;-34
2021/10/10 09:41:48;;;;;;;10.80;7.13;;;14.50;42.30;;;;;;5038849;28;20037;-34
2021/10/10 09:44:12;;;;;;;13.43;8.30;;;14.50;42.40;;;;;;5038734;28;20278;-39
2021/10/10 09:46:41;;;;;;;15.82;7.35;;;14.60;42.20;;;;;;5038951;28;20021;-34
2021/10/10 09:49:24;;;;;;;11.60;6.10;;;14.60;42.00;;;;;;5038837;28;20441;-37
2021/10/10 09:51:50;;;;;;;13.60;6.45;;;14.70;41.90;;;;;;5038906;28;20029;-34
2021/10/10 09:54:17;;;;;;;15.02;8.32;;;14.70;42.00;;;;;;5039254;28;20142;-38
2021/10/10 09:57:03;;;;;;;11.25;7.47;;;14.70;41.70;;;;;;5037645;28;20073;-38
2021/10/10 09:59:28;;;;;;;11.60;6.38;;;14.80;41.40;;;;;;5039148;28;20335;-34
2021/10/10 10:01:54;;;;;;;10.07;6.53;;;14.80;41.80;;;;;;5038694;28;20028;-38
2021/10/10 10:04:20;;;;;;;9.63;6.13;;;14.80;41.40;;;;;;5038618;28;20491;-39
2021/10/10 10:06:45;;;;;;;14.40;6.38;;;14.80;41.30;;;;;;5038568;28;20040;-39
2021/10/10 10:09:13;;;;;;;21.40;7.43;;;14.90;41.10;;;;;;5038690;28;20065;-39
2021/10/10 10:11:45;;;;;;;15.57;6.25;;;14.90;41.10;;;;;;5038759;28;20040;-38
2021/10/10 10:14:15;;;;;;;11.35;7.05;;;14.90;40.90;;;;;;5038361;28;20345;-39
2021/10/10 10:16:48;;;;;;;12.95;7.80;;;14.90;40.60;;;;;;5038445;28;20022;-38
2021/10/10 10:19:19;;;;;;;13.77;8.75;;;14.90;40.40;;;;;;5038395;28;20045;-39
2021/10/10 10:21:52;;;;;;;13.07;7.35;;;14.90;40.70;;;;;;5038403;28;20068;-35
2021/10/10 10:24:19;;;;;;;17.02;8.88;;;14.90;40.70;;;;;;5038714;28;20060;-35
2021/10/10 10:26:45;;;;;;;8.05;5.20;;;14.90;40.60;;;;;;5037940;28;20164;-41
2021/10/10 10:29:26;;;;;;;10.52;6.20;;;14.90;40.20;;;;;;5038370;28;20373;-35
2021/10/10 10:31:55;;;;;;;12.60;6.70;;;14.90;40.00;;;;;;5038172;28;20143;-34
2021/10/10 10:34:31;;;;;;;11.00;5.90;;;14.90;40.20;;;;;;5038349;28;20326;-37
2021/10/10 10:37:00;;;;;;;10.95;7.43;;;15.00;40.00;;;;;;5037990;28;20413;-36
2021/10/10 10:39:49;;;;;;;14.55;9.57;;;15.00;40.00;;;;;;5038512;28;20042;-40
2021/10/10 10:42:24;;;;;;;14.70;6.72;;;15.00;39.90;;;;;;5038145;28;20410;-39
2021/10/10 10:44:54;;;;;;;12.70;5.90;;;15.00;39.70;;;;;;5038087;28;20057;-36
2021/10/10 10:47:35;;;;;;;14.65;7.07;;;15.00;39.80;;;;;;5037860;28;20029;-35
2021/10/10 10:50:04;;;;;;;10.57;6.70;;;15.00;40.00;;;;;;5037564;28;20124;-34
2021/10/10 10:52:36;;;;;;;11.32;6.68;;;15.00;39.80;;;;;;5037766;28;20133;-35
2021/10/10 10:55:24;;;;;;;19.17;9.90;;;15.10;39.70;;;;;;5037824;28;20036;-35
2021/10/10 10:58:10;;;;;;;12.55;6.65;;;15.10;39.40;;;;;;5037394;28;20080;-41
2021/10/10 11:00:45;;;;;;;8.77;6.07;;;15.10;39.40;;;;;;5037871;28;20448;-37
2021/10/10 11:03:12;;;;;;;16.05;9.10;;;15.20;39.50;;;;;;5037861;28;20120;-35
2021/10/10 11:05:45;;;;;;;19.30;10.38;;;15.30;39.50;;;;;;5037674;28;20061;-39
2021/10/10 11:08:16;;;;;;;23.15;14.02;;;15.30;39.50;;;;;;5037921;28;20053;-35
2021/10/10 11:11:00;;;;;;;35.17;23.27;;;15.40;39.40;;;;;;5037986;28;20410;-35
2021/10/10 11:13:34;;;;;;;19.42;10.45;;;15.50;39.30;;;;;;5038050;28;20068;-40
2021/10/10 11:16:12;;;;;;;32.30;18.67;;;15.60;39.10;;;;;;5035872;28;20036;-35
2021/10/10 11:18:54;;;;;;;10.55;6.55;;;15.60;39.00;;;;;;5037895;28;20029;-39
2021/10/10 11:21:22;;;;;;;15.23;7.32;;;15.80;39.10;;;;;;5037360;28;20284;-34
2021/10/10 11:23:53;;;;;;;10.75;6.03;;;15.80;39.10;;;;;;5037891;28;20410;-38
2021/10/10 11:26:19;;;;;;;;;;;15.90;39.00;;;;;;5037413;28;20041;-34
2021/10/10 11:28:50;;;;;;;10.25;5.47;;;15.90;39.20;;;;;;5037829;28;20335;-38
2021/10/10 11:31:18;;;;;;;14.52;5.30;;;16.00;39.30;;;;;;5037201;28;20045;-40
2021/10/10 11:33:55;;;;;;;17.95;8.77;;;16.00;38.80;;;;;;5037720;28;20041;-39
2021/10/10 11:36:46;;;;;;;21.50;7.63;;;16.10;38.50;;;;;;5036800;28;20080;-36
2021/10/10 11:39:14;;;;;;;11.80;6.07;;;16.20;38.50;;;;;;5037058;28;20043;-37
2021/10/10 11:41:48;;;;;;;8.80;5.55;;;16.30;38.40;;;;;;5036837;28;20064;-39
2021/10/10 11:44:22;;;;;;;9.82;5.05;;;16.30;38.30;;;;;;5037301;28;20097;-39
2021/10/10 11:46:58;;;;;;;14.48;6.00;;;16.40;38.10;;;;;;5036835;28;20112;-39
2021/10/10 11:49:42;;;;;;;65.43;29.95;;;16.50;38.20;;;;;;5037136;28;20026;-39
2021/10/10 11:52:31;;;;;;;26.63;12.70;;;16.50;38.10;;;;;;5036714;28;20075;-35
2021/10/10 11:57:38;;;;;;;26.88;9.85;;;16.60;38.00;;;;;;5036806;28;20049;-36
2021/10/10 12:00:05;;;;;;;12.02;6.68;;;16.60;38.00;;;;;;5035459;28;20044;-38
2021/10/10 12:02:36;;;;;;;12.77;5.45;;;16.70;38.10;;;;;;5036246;28;20387;-39
2021/10/10 12:05:09;;;;;;;;;;;16.70;37.70;;;;;;5037038;28;20059;-35
2021/10/10 12:07:36;;;;;;;33.47;12.77;;;16.70;38.10;;;;;;5036627;28;19992;-39
2021/10/10 12:10:07;;;;;;;14.25;6.55;;;16.70;38.20;;;;;;5036621;28;20354;-35
2021/10/10 12:12:33;;;;;;;23.52;9.93;;;16.70;38.00;;;;;;5036881;28;20025;-35
2021/10/10 12:14:59;;;;;;;16.45;7.50;;;16.80;38.20;;;;;;5036185;28;20410;-39
2021/10/10 12:17:35;;;;;;;16.65;6.97;;;17.00;38.20;;;;;;5036604;28;20317;-39
2021/10/10 12:20:19;;;;;;;21.00;7.70;;;17.10;37.70;;;;;;5036234;28;20033;-35
2021/10/10 12:22:55;;;;;;;11.55;5.65;;;17.40;37.70;;;;;;5036512;28;20029;-39
2021/10/10 12:25:26;;;;;;;21.80;8.73;;;17.60;37.40;;;;;;5036039;28;20033;-35
2021/10/10 12:27:59;;;;;;;29.17;10.52;;;17.70;37.50;;;;;;5035958;28;20088;-39
2021/10/10 12:30:32;;;;;;;28.52;12.90;;;17.90;37.90;;;;;;5036127;28;20422;-36
2021/10/10 12:32:59;;;;;;;21.63;7.88;;;18.20;37.00;;;;;;5036345;28;20083;-40
2021/10/10 12:35:25;;;;;;;23.63;11.85;;;18.40;36.60;;;;;;5034949;28;20033;-39
2021/10/10 12:37:51;;;;;;;12.15;5.95;;;18.50;36.20;;;;;;5035877;28;20075;-35
2021/10/10 12:40:37;;;;;;;14.13;7.22;;;18.50;35.70;;;;;;5036246;28;20336;-40
2021/10/10 12:43:03;;;;;;;15.20;7.07;;;18.60;35.50;;;;;;5036216;28;20033;-39
2021/10/10 12:45:32;;;;;;;15.10;7.28;;;18.60;36.10;;;;;;5035779;28;20033;-35
2021/10/10 12:48:09;;;;;;;15.23;7.57;;;18.60;35.40;;;;;;5035277;28;20048;-39
2021/10/10 12:50:48;;;;;;;14.68;6.80;;;18.50;35.40;;;;;;5035796;28;20025;-39
2021/10/10 12:53:28;;;;;;;11.88;6.10;;;18.50;35.60;;;;;;5035978;28;20305;-35